createdAt,value
2023-04-14T00:01:21.525Z,25.87
2023-04-14T00:03:48.673Z,26.17
2023-04-14T00:06:15.661Z,23.23
2023-04-14T00:08:42.545Z,25.87
2023-04-14T00:11:09.636Z,23.53
2023-04-14T00:13:37.038Z,26.70
2023-04-14T00:16:04.120Z,21.47
2023-04-14T00:18:31.058Z,25.07
2023-04-14T00:20:57.909Z,24.10
2023-04-14T00:23:24.798Z,22.77
2023-04-14T00:25:51.747Z,27.20
2023-04-14T00:28:18.624Z,27.40
2023-04-14T00:30:47.095Z,26.23
2023-04-14T00:33:14.085Z,27.20
2023-04-14T00:35:40.949Z,26.13
2023-04-14T00:38:07.911Z,24.47
2023-04-14T00:40:34.882Z,26.33
2023-04-14T00:43:01.737Z,25.80
2023-04-14T00:45:28.822Z,22.63
2023-04-14T00:47:56.087Z,25.57
2023-04-14T00:50:23.018Z,23.43
2023-04-14T00:52:51.353Z,24.00
2023-04-14T00:55:18.769Z,24.70
2023-04-14T00:57:46.099Z,24.80
2023-04-14T01:00:14.144Z,25.43
2023-04-14T01:02:41.959Z,25.37
2023-04-14T01:05:09.295Z,27.33
2023-04-14T01:07:36.457Z,27.00
2023-04-14T01:10:04.035Z,32.13
2023-04-14T01:12:56.000Z,32.70
2023-04-14T01:15:32.907Z,31.07
2023-04-14T01:18:08.143Z,30.27
2023-04-14T01:20:42.509Z,29.17
2023-04-14T01:23:11.864Z,30.07
2023-04-14T01:25:57.623Z,31.03
2023-04-14T01:28:24.503Z,33.30
2023-04-14T01:31:12.100Z,36.87
2023-04-14T01:33:41.499Z,33.00
2023-04-14T01:36:13.096Z,32.77
2023-04-14T01:38:41.374Z,33.93
2023-04-14T01:41:09.826Z,32.73
2023-04-14T01:43:38.079Z,33.23
2023-04-14T01:46:07.377Z,26.93
2023-04-14T01:48:34.487Z,31.50
2023-04-14T01:51:02.620Z,28.00
2023-04-14T01:53:31.342Z,30.70
2023-04-14T01:56:01.042Z,25.40
2023-04-14T01:58:30.633Z,26.33
2023-04-14T02:00:57.979Z,26.63
2023-04-14T02:03:26.003Z,23.40
2023-04-14T02:05:54.490Z,22.03
2023-04-14T02:08:23.320Z,22.40
2023-04-14T02:10:52.324Z,23.20
2023-04-14T02:13:21.063Z,23.80
2023-04-14T02:15:48.946Z,23.87
2023-04-14T02:18:23.262Z,23.87
2023-04-14T02:20:52.811Z,26.80
2023-04-14T02:23:19.798Z,27.43
2023-04-14T02:25:53.303Z,23.77
2023-04-14T02:28:23.736Z,25.03
2023-04-14T02:30:51.650Z,23.07
2023-04-14T02:33:22.953Z,26.23
2023-04-14T02:35:49.777Z,25.33
2023-04-14T02:38:22.480Z,25.17
2023-04-14T02:40:50.141Z,26.40
2023-04-14T02:43:40.430Z,26.73
2023-04-14T02:46:09.558Z,28.70
2023-04-14T02:48:38.256Z,31.00
2023-04-14T02:51:06.216Z,27.70
2023-04-14T02:53:33.689Z,27.90
2023-04-14T02:56:10.637Z,29.83
2023-04-14T02:58:40.700Z,25.30
2023-04-14T03:01:08.156Z,25.90
2023-04-14T03:03:37.824Z,24.77
2023-04-14T03:06:09.522Z,28.40
2023-04-14T03:08:37.566Z,28.60
2023-04-14T03:11:04.946Z,29.93
2023-04-14T03:13:33.846Z,29.53
2023-04-14T03:16:00.940Z,24.77
2023-04-14T03:18:29.802Z,24.53
2023-04-14T03:20:57.685Z,28.90
2023-04-14T03:23:25.519Z,25.90
2023-04-14T03:25:58.434Z,24.30
2023-04-14T03:28:30.627Z,26.00
2023-04-14T03:31:01.503Z,27.07
2023-04-14T03:33:35.831Z,28.13
2023-04-14T03:36:03.780Z,27.77
2023-04-14T03:38:32.003Z,31.50
2023-04-14T03:41:01.280Z,33.40
2023-04-14T03:43:29.017Z,30.33
2023-04-14T03:46:02.653Z,30.73
2023-04-14T03:48:31.587Z,28.30
2023-04-14T03:51:00.126Z,32.83
2023-04-14T03:53:28.255Z,31.13
2023-04-14T03:55:56.979Z,30.13
2023-04-14T03:58:25.567Z,28.23
2023-04-14T04:00:53.630Z,28.43
2023-04-14T04:03:21.905Z,32.30
2023-04-14T04:05:49.218Z,32.53
2023-04-14T04:08:16.325Z,33.07
2023-04-14T04:10:44.645Z,36.40
2023-04-14T04:13:13.440Z,30.83
2023-04-14T04:15:42.166Z,31.37
2023-04-14T04:18:11.482Z,27.77
2023-04-14T04:20:40.926Z,28.57
2023-04-14T04:23:08.753Z,34.97
2023-04-14T04:25:36.944Z,40.13
2023-04-14T04:28:15.087Z,32.93
2023-04-14T04:30:42.629Z,34.17
2023-04-14T04:33:10.928Z,39.73
2023-04-14T04:35:39.211Z,34.43
2023-04-14T04:38:11.526Z,35.03
2023-04-14T04:40:42.037Z,32.00
2023-04-14T04:43:19.502Z,30.53
2023-04-14T04:45:46.789Z,39.83
2023-04-14T04:48:13.593Z,34.63
2023-04-14T04:50:43.797Z,31.70
2023-04-14T04:53:12.416Z,36.07
2023-04-14T04:55:40.489Z,36.23
2023-04-14T04:58:07.388Z,32.30
2023-04-14T05:00:34.233Z,34.53
2023-04-14T05:03:01.420Z,36.20
2023-04-14T05:05:28.321Z,37.13
2023-04-14T05:07:55.137Z,35.47
2023-04-14T05:10:22.254Z,33.57
2023-04-14T05:12:49.059Z,35.13
2023-04-14T05:15:16.132Z,31.23
2023-04-14T05:17:44.514Z,37.13
2023-04-14T05:20:11.662Z,40.90
2023-04-14T05:22:38.612Z,40.43
2023-04-14T05:25:05.557Z,45.17
2023-04-14T05:27:32.776Z,42.60
2023-04-14T05:29:59.830Z,42.00
2023-04-14T05:32:29.201Z,41.00
2023-04-14T05:34:56.365Z,40.77
2023-04-14T05:37:23.261Z,42.87
2023-04-14T05:39:50.046Z,41.00
2023-04-14T05:42:17.041Z,40.87
2023-04-14T05:44:43.886Z,44.93
2023-04-14T05:47:10.666Z,43.63
2023-04-14T05:49:37.528Z,41.97
2023-04-14T05:52:04.540Z,42.77
2023-04-14T05:54:31.351Z,36.70
2023-04-14T05:56:58.353Z,36.80
2023-04-14T05:59:25.195Z,37.47
2023-04-14T06:01:52.138Z,35.93
2023-04-14T06:04:19.499Z,35.20
2023-04-14T06:06:46.499Z,39.00
2023-04-14T06:09:13.375Z,43.33
2023-04-14T06:11:40.654Z,40.67
2023-04-14T06:14:07.756Z,37.70
2023-04-14T06:16:34.718Z,38.03
2023-04-14T06:19:02.155Z,41.00
2023-04-14T06:21:29.350Z,42.83
2023-04-14T06:23:56.279Z,39.77
2023-04-14T06:26:23.114Z,40.77
2023-04-14T06:28:50.646Z,44.27
2023-04-14T06:31:17.515Z,77.83
2023-04-14T06:33:44.460Z,40.50
2023-04-14T06:36:11.602Z,40.83
2023-04-14T06:38:38.398Z,42.13
2023-04-14T06:41:06.149Z,43.23
2023-04-14T06:43:33.310Z,42.73
2023-04-14T06:46:00.282Z,41.10
2023-04-14T06:48:27.626Z,45.63
2023-04-14T06:50:56.094Z,41.17
2023-04-14T06:53:26.405Z,45.83
2023-04-14T06:55:59.725Z,43.30
2023-04-14T06:58:27.745Z,44.40
2023-04-14T07:00:57.939Z,52.03
2023-04-14T07:03:25.121Z,42.13
2023-04-14T07:05:53.256Z,48.93
2023-04-14T07:08:21.187Z,47.23
2023-04-14T07:10:48.356Z,44.47
2023-04-14T07:13:15.174Z,47.37
2023-04-14T07:15:45.811Z,49.87
2023-04-14T07:18:12.797Z,50.27
2023-04-14T07:20:39.648Z,49.57
2023-04-14T07:23:06.414Z,51.00
2023-04-14T07:25:35.164Z,47.37
2023-04-14T07:28:03.704Z,48.17
2023-04-14T07:30:31.707Z,52.47
2023-04-14T07:32:58.741Z,50.57
2023-04-14T07:35:26.461Z,47.40
2023-04-14T07:37:53.319Z,52.23
2023-04-14T07:40:20.494Z,50.10
2023-04-14T07:42:47.431Z,47.60
2023-04-14T07:45:14.424Z,92.50
2023-04-14T07:47:41.424Z,46.67
2023-04-14T07:50:08.425Z,43.13
2023-04-14T07:52:35.261Z,39.77
2023-04-14T07:55:02.150Z,41.27
2023-04-14T07:57:29.038Z,38.27
2023-04-14T07:59:55.879Z,39.77
2023-04-14T08:02:22.957Z,36.67
2023-04-14T08:04:50.055Z,31.23
2023-04-14T08:07:16.973Z,33.33
2023-04-14T08:09:43.912Z,33.93
2023-04-14T08:12:10.826Z,35.03
2023-04-14T08:14:38.096Z,41.20
2023-04-14T08:17:04.935Z,37.80
2023-04-14T08:19:33.937Z,37.00
2023-04-14T08:22:00.871Z,29.13
2023-04-14T08:24:27.817Z,31.20
2023-04-14T08:26:55.167Z,30.00
2023-04-14T08:29:22.991Z,33.17
2023-04-14T08:31:49.799Z,33.93
2023-04-14T08:34:21.229Z,29.73
2023-04-14T08:36:55.549Z,28.70
2023-04-14T08:39:22.699Z,30.87
2023-04-14T08:41:51.122Z,57.53
2023-04-14T08:44:18.156Z,30.93
2023-04-14T08:46:45.872Z,31.90
2023-04-14T08:49:15.036Z,41.33
2023-04-14T08:51:45.962Z,32.23
2023-04-14T08:54:12.944Z,36.07
2023-04-14T08:56:43.274Z,31.33
2023-04-14T08:59:10.762Z,28.97
2023-04-14T09:01:38.520Z,26.67
2023-04-14T09:04:06.607Z,31.47
2023-04-14T09:06:34.738Z,23.97
2023-04-14T09:09:05.523Z,25.20
2023-04-14T09:11:32.549Z,26.47
2023-04-14T09:14:00.016Z,27.43
2023-04-14T09:16:28.240Z,21.93
2023-04-14T09:18:55.641Z,27.60
2023-04-14T09:21:34.140Z,25.93
2023-04-14T09:24:12.052Z,24.40
2023-04-14T09:26:39.064Z,30.73
2023-04-14T09:29:06.282Z,29.33
2023-04-14T09:31:33.774Z,29.27
2023-04-14T09:34:01.132Z,29.63
2023-04-14T09:36:29.291Z,33.97
2023-04-14T09:38:57.445Z,37.30
2023-04-14T09:41:26.242Z,32.07
2023-04-14T09:43:53.213Z,30.30
2023-04-14T09:46:20.633Z,26.27
2023-04-14T09:48:52.275Z,30.83
2023-04-14T09:51:21.894Z,37.83
2023-04-14T09:53:48.769Z,35.33
2023-04-14T09:56:16.133Z,31.50
2023-04-14T09:58:44.166Z,23.50
2023-04-14T10:01:13.117Z,24.10
2023-04-14T10:03:41.287Z,23.47
2023-04-14T10:06:10.833Z,24.20
2023-04-14T10:08:38.627Z,20.87
2023-04-14T10:11:18.859Z,21.33
2023-04-14T10:13:55.841Z,19.20
2023-04-14T10:16:23.518Z,19.07
2023-04-14T10:18:51.145Z,15.67
2023-04-14T10:21:18.184Z,21.47
2023-04-14T10:23:45.353Z,16.83
2023-04-14T10:26:12.981Z,12.57
2023-04-14T10:28:43.971Z,18.33
2023-04-14T10:31:16.329Z,10.50
2023-04-14T10:33:43.386Z,10.93
2023-04-14T10:36:10.260Z,10.07
2023-04-14T10:38:40.000Z,10.00
2023-04-14T10:41:07.923Z,7.23
2023-04-14T10:43:36.868Z,11.63
2023-04-14T10:46:05.095Z,10.87
2023-04-14T10:48:33.580Z,10.17
2023-04-14T10:51:02.016Z,13.37
2023-04-14T10:53:37.106Z,9.70
2023-04-14T10:56:04.316Z,14.23
2023-04-14T10:58:33.784Z,8.87
2023-04-14T11:01:00.667Z,10.70
2023-04-14T11:03:31.122Z,11.50
2023-04-14T11:05:58.307Z,8.17
2023-04-14T11:08:26.835Z,7.90
2023-04-14T11:11:22.872Z,9.77
2023-04-14T11:14:09.700Z,6.20
2023-04-14T11:16:44.639Z,6.80
2023-04-14T11:19:18.263Z,6.87
2023-04-14T11:21:50.499Z,7.00
2023-04-14T11:24:18.209Z,9.87
2023-04-14T11:26:45.584Z,9.67
2023-04-14T11:29:12.475Z,6.17
2023-04-14T11:31:39.419Z,6.00
2023-04-14T11:34:09.353Z,10.10
2023-04-14T11:36:37.367Z,7.70
2023-04-14T11:39:04.410Z,8.77
2023-04-14T11:41:31.620Z,9.97
2023-04-14T11:43:59.316Z,6.37
2023-04-14T11:46:26.450Z,7.80
2023-04-14T11:48:56.834Z,7.03
2023-04-14T11:51:30.801Z,9.33
2023-04-14T11:53:58.886Z,8.90
2023-04-14T11:56:25.895Z,10.83
2023-04-14T11:58:59.661Z,15.23
2023-04-14T12:01:27.209Z,8.40
2023-04-14T12:03:54.364Z,7.60
2023-04-14T12:06:21.312Z,8.10
2023-04-14T12:08:54.938Z,8.93
2023-04-14T12:11:21.915Z,9.73
2023-04-14T12:13:49.661Z,11.10
2023-04-14T12:16:17.473Z,8.67
2023-04-14T12:18:44.623Z,7.87
2023-04-14T12:21:16.342Z,10.47
2023-04-14T12:23:45.261Z,12.57
2023-04-14T12:26:12.389Z,9.53
2023-04-14T12:28:42.258Z,10.27
2023-04-14T12:31:09.959Z,9.17
2023-04-14T12:33:37.042Z,8.40
2023-04-14T12:36:07.729Z,7.70
2023-04-14T12:38:35.207Z,8.37
2023-04-14T12:41:02.433Z,8.43
2023-04-14T12:43:30.437Z,7.73
2023-04-14T12:45:58.519Z,6.63
2023-04-14T12:48:47.123Z,8.77
2023-04-14T12:51:15.391Z,6.47
2023-04-14T12:53:42.787Z,7.80
2023-04-14T12:56:10.648Z,6.50
2023-04-14T12:58:38.555Z,6.60
2023-04-14T13:01:06.873Z,8.63
2023-04-14T13:03:45.080Z,10.93
2023-04-14T13:06:12.904Z,11.60
2023-04-14T13:08:44.849Z,9.77
2023-04-14T13:11:12.542Z,9.67
2023-04-14T13:13:39.450Z,12.60
2023-04-14T13:16:13.658Z,11.27
2023-04-14T13:18:42.684Z,9.77
2023-04-14T13:21:09.787Z,6.70
2023-04-14T13:23:37.027Z,8.33
2023-04-14T13:26:04.313Z,10.93
2023-04-14T13:28:31.707Z,10.77
2023-04-14T13:30:58.618Z,15.03
2023-04-14T13:33:26.010Z,21.77
2023-04-14T13:35:53.679Z,14.53
2023-04-14T13:38:20.522Z,11.87
2023-04-14T13:40:48.267Z,12.33
2023-04-14T13:43:16.171Z,14.30
2023-04-14T13:45:43.752Z,7.90
2023-04-14T13:48:10.726Z,11.67
2023-04-14T13:50:37.561Z,12.53
2023-04-14T13:53:04.507Z,15.83
2023-04-14T13:55:31.584Z,20.10
2023-04-14T13:57:58.388Z,10.60
2023-04-14T14:00:26.285Z,12.00
2023-04-14T14:02:53.933Z,9.23
2023-04-14T14:05:20.949Z,10.77
2023-04-14T14:07:47.780Z,10.27
2023-04-14T14:10:14.684Z,8.13
2023-04-14T14:12:41.810Z,9.07
2023-04-14T14:15:08.918Z,8.70
2023-04-14T14:17:37.014Z,6.63
2023-04-14T14:20:04.078Z,8.03
2023-04-14T14:22:30.984Z,9.47
2023-04-14T14:25:10.783Z,10.00
2023-04-14T14:27:45.081Z,7.47
2023-04-14T14:30:12.376Z,12.93
2023-04-14T14:32:39.279Z,12.50
2023-04-14T14:35:06.358Z,9.90
2023-04-14T14:37:33.266Z,7.20
2023-04-14T14:40:00.072Z,7.67
2023-04-14T14:42:27.109Z,10.03
2023-04-14T14:44:54.524Z,8.20
2023-04-14T14:47:21.576Z,9.00
2023-04-14T14:49:58.949Z,9.33
2023-04-14T14:52:34.553Z,6.90
2023-04-14T14:55:01.989Z,6.83
2023-04-14T14:57:29.262Z,11.83
2023-04-14T14:59:56.303Z,7.60
2023-04-14T15:02:23.624Z,9.33
2023-04-14T15:04:50.641Z,7.37
2023-04-14T15:07:17.835Z,12.23
2023-04-14T15:09:46.393Z,9.20
2023-04-14T15:12:13.499Z,7.60
2023-04-14T15:14:40.382Z,8.90
2023-04-14T15:17:07.303Z,8.33
2023-04-14T15:19:34.104Z,11.00
2023-04-14T15:22:01.704Z,10.83
2023-04-14T15:24:28.535Z,15.40
2023-04-14T15:26:56.249Z,12.33
2023-04-14T15:29:26.061Z,8.70
2023-04-14T15:31:53.157Z,10.60
2023-04-14T15:34:21.660Z,12.73
2023-04-14T15:36:48.582Z,7.50
2023-04-14T15:39:15.515Z,11.43
2023-04-14T15:41:42.424Z,10.90
2023-04-14T15:44:09.252Z,9.27
2023-04-14T15:46:36.232Z,13.57
2023-04-14T15:49:03.012Z,10.20
2023-04-14T15:51:29.884Z,10.07
2023-04-14T15:53:56.762Z,7.80
2023-04-14T15:56:23.849Z,8.93
2023-04-14T15:58:50.710Z,9.53
2023-04-14T16:01:17.746Z,12.93
2023-04-14T16:03:45.169Z,11.60
2023-04-14T16:06:12.405Z,9.10
2023-04-14T16:08:39.265Z,12.50
2023-04-14T16:11:06.255Z,10.60
2023-04-14T16:13:33.287Z,19.47
2023-04-14T16:16:00.346Z,16.80
2023-04-14T16:18:27.302Z,13.77
2023-04-14T16:20:54.187Z,9.87
2023-04-14T16:23:21.020Z,13.53
2023-04-14T16:25:48.620Z,12.83
2023-04-14T16:28:16.527Z,9.53
2023-04-14T16:30:43.340Z,11.17
2023-04-14T16:33:10.938Z,11.30
2023-04-14T16:35:37.955Z,11.90
2023-04-14T16:38:08.696Z,10.00
2023-04-14T16:40:36.271Z,12.57
2023-04-14T16:43:03.522Z,11.77
2023-04-14T16:45:33.354Z,10.87
2023-04-14T16:48:00.433Z,9.30
2023-04-14T16:50:27.556Z,14.80
2023-04-14T16:52:54.425Z,17.80
2023-04-14T16:55:21.279Z,8.97
2023-04-14T16:57:48.176Z,12.77
2023-04-14T17:00:15.237Z,13.43
2023-04-14T17:02:42.806Z,10.83
2023-04-14T17:05:11.343Z,14.83
2023-04-14T17:07:38.292Z,12.37
2023-04-14T17:10:05.284Z,18.77
2023-04-14T17:12:32.359Z,17.17
2023-04-14T17:15:00.672Z,14.40
2023-04-14T17:17:28.578Z,11.60
2023-04-14T17:19:56.875Z,16.90
2023-04-14T17:22:24.101Z,24.27
2023-04-14T17:24:50.921Z,29.60
2023-04-14T17:27:17.952Z,20.23
2023-04-14T17:29:45.027Z,28.03
2023-04-14T17:32:12.369Z,20.27
2023-04-14T17:34:39.364Z,18.67
2023-04-14T17:37:06.398Z,16.63
2023-04-14T17:39:33.228Z,18.43
2023-04-14T17:42:01.605Z,19.23
2023-04-14T17:44:32.082Z,14.80
2023-04-14T17:47:03.452Z,19.70
2023-04-14T17:49:31.689Z,17.13
2023-04-14T17:51:58.504Z,24.40
2023-04-14T17:54:25.616Z,16.40
2023-04-14T17:56:52.873Z,17.77
2023-04-14T17:59:20.468Z,15.17
2023-04-14T18:01:47.552Z,15.10
2023-04-14T18:04:14.490Z,16.03
2023-04-14T18:06:41.860Z,11.33
2023-04-14T18:09:09.495Z,10.80
2023-04-14T18:11:36.798Z,12.17
2023-04-14T18:14:04.168Z,13.00
2023-04-14T18:16:31.617Z,13.83
2023-04-14T18:18:58.447Z,11.73
2023-04-14T18:21:25.446Z,12.37
2023-04-14T18:28:53.000Z,13.37
2023-04-14T18:31:19.804Z,23.80
2023-04-14T18:33:46.931Z,15.87
2023-04-14T18:36:13.757Z,15.00
2023-04-14T18:38:40.688Z,12.83
2023-04-14T18:41:07.477Z,16.00
2023-04-14T18:43:35.060Z,19.57
2023-04-14T18:46:02.545Z,31.63
2023-04-14T18:48:29.487Z,83.37
2023-04-14T18:51:01.970Z,31.80
2023-04-14T18:53:28.933Z,40.77
2023-04-14T18:55:55.861Z,30.90
2023-04-14T18:58:23.164Z,20.13
2023-04-14T19:00:49.967Z,23.83
2023-04-14T19:03:17.267Z,20.17
2023-04-14T19:05:44.299Z,14.33
2023-04-14T19:08:11.196Z,23.80
2023-04-14T19:10:38.673Z,23.17
2023-04-14T19:13:06.012Z,19.10
2023-04-14T19:15:32.823Z,18.67
2023-04-14T19:17:59.707Z,23.30
2023-04-14T19:20:26.923Z,20.50
2023-04-14T19:22:53.866Z,19.07
2023-04-14T19:25:20.842Z,19.93
2023-04-14T19:27:47.615Z,20.30
2023-04-14T19:30:14.490Z,19.53
2023-04-14T19:32:41.698Z,17.60
2023-04-14T19:35:09.295Z,39.77
2023-04-14T19:37:36.264Z,19.40
2023-04-14T19:40:06.268Z,19.80
2023-04-14T19:42:33.632Z,19.40
2023-04-14T19:45:00.742Z,21.50
2023-04-14T19:47:27.824Z,20.73
2023-04-14T19:49:55.431Z,22.03
2023-04-14T19:52:22.572Z,18.47
2023-04-14T19:54:49.974Z,22.23
2023-04-14T19:57:17.094Z,18.80
2023-04-14T19:59:44.455Z,20.57
2023-04-14T20:02:13.487Z,18.67
2023-04-14T20:04:40.764Z,20.13
2023-04-14T20:07:07.768Z,23.77
2023-04-14T20:09:34.824Z,22.67
2023-04-14T20:12:02.508Z,19.57
2023-04-14T20:14:29.732Z,20.00
2023-04-14T20:16:56.983Z,17.70
2023-04-14T20:19:24.647Z,19.77
2023-04-14T20:21:51.573Z,22.80
2023-04-14T20:24:18.799Z,23.10
2023-04-14T20:26:45.789Z,17.67
2023-04-14T20:29:12.800Z,18.97
2023-04-14T20:31:41.804Z,16.60
2023-04-14T20:34:09.150Z,15.47
2023-04-14T20:36:36.782Z,16.77
2023-04-14T20:39:06.020Z,14.50
2023-04-14T20:41:33.945Z,18.63
2023-04-14T20:44:00.972Z,13.17
2023-04-14T20:46:28.193Z,15.63
2023-04-14T20:48:55.712Z,13.93
2023-04-14T20:51:22.888Z,16.67
2023-04-14T20:53:50.920Z,17.10
2023-04-14T20:56:18.001Z,12.37
2023-04-14T20:58:45.800Z,17.77
2023-04-14T21:01:12.746Z,16.30
2023-04-14T21:03:39.820Z,19.37
2023-04-14T21:06:06.896Z,15.30
2023-04-14T21:08:33.731Z,15.83
2023-04-14T21:11:15.545Z,18.87
2023-04-14T21:15:25.446Z,13.80
2023-04-14T21:16:31.066Z,6.10
2023-04-14T21:18:57.870Z,14.53
2023-04-14T21:21:24.721Z,12.87
2023-04-14T21:23:51.575Z,15.90
2023-04-14T21:26:19.104Z,15.63
2023-04-14T21:28:46.008Z,15.77
2023-04-14T21:31:12.930Z,14.77
2023-04-14T21:33:41.920Z,15.90
2023-04-14T21:36:12.049Z,17.40
2023-04-14T21:38:39.414Z,15.27
2023-04-14T21:41:06.509Z,17.37
2023-04-14T21:43:33.367Z,12.67
2023-04-14T21:46:00.505Z,19.23
2023-04-14T21:48:27.857Z,17.70
2023-04-14T21:50:54.707Z,18.10
2023-04-14T21:53:21.603Z,16.20
2023-04-14T21:56:09.398Z,19.47
2023-04-14T21:58:35.399Z,19.20
2023-04-14T22:01:02.278Z,20.87
2023-04-14T22:03:29.301Z,23.47
2023-04-14T22:05:56.266Z,18.13
2023-04-14T22:08:24.246Z,16.37
2023-04-14T22:10:52.581Z,20.13
2023-04-14T22:13:19.373Z,20.57
2023-04-14T22:15:46.981Z,20.03
2023-04-14T22:18:13.911Z,19.23
2023-04-14T22:20:40.783Z,16.90
2023-04-14T22:23:07.542Z,19.10
2023-04-14T22:25:35.147Z,16.53
2023-04-14T22:28:01.913Z,16.53
2023-04-14T22:30:28.837Z,18.30
2023-04-14T22:32:56.299Z,16.23
2023-04-14T22:35:23.408Z,17.17
2023-04-14T22:37:50.221Z,16.37
2023-04-14T22:40:17.160Z,21.23
2023-04-14T22:42:44.014Z,15.70
2023-04-14T22:45:10.869Z,14.23
2023-04-14T22:47:37.899Z,16.13
2023-04-14T22:50:04.853Z,17.47
2023-04-14T22:52:31.901Z,17.60
2023-04-14T22:54:58.778Z,14.97
2023-04-14T22:57:26.788Z,17.23
2023-04-14T22:59:53.906Z,18.00
2023-04-14T23:02:21.577Z,16.33
2023-04-14T23:04:48.683Z,16.97
2023-04-14T23:07:15.714Z,17.67
2023-04-14T23:09:42.622Z,14.83
2023-04-14T23:12:09.831Z,18.07
2023-04-14T23:14:36.976Z,18.77
2023-04-14T23:17:04.413Z,17.30
2023-04-14T23:19:33.231Z,17.50
2023-04-14T23:22:00.072Z,18.23
2023-04-14T23:24:26.960Z,17.10
2023-04-14T23:26:54.590Z,14.17
2023-04-14T23:29:21.610Z,19.97
2023-04-14T23:31:48.595Z,15.80
2023-04-14T23:34:15.446Z,15.87
2023-04-14T23:36:42.671Z,15.90
2023-04-14T23:39:09.491Z,16.20
2023-04-14T23:41:37.114Z,14.33
2023-04-14T23:44:04.048Z,17.43
2023-04-14T23:46:31.074Z,14.10
2023-04-14T23:48:58.194Z,15.70
2023-04-14T23:51:27.270Z,17.03
2023-04-14T23:53:54.256Z,13.50
2023-04-14T23:56:21.574Z,17.57
2023-04-14T23:58:48.724Z,16.20
